sensor_id;sensor_type;location;lat;lon;timestamp;temperature;humidity
20005;DHT22;69160;45.498;-73.582;2023-08-07T00:00:55;21.50;98.20
20005;DHT22;69160;45.498;-73.582;2023-08-07T00:03:21;21.50;99.40
20005;DHT22;69160;45.498;-73.582;2023-08-07T00:05:47;21.50;99.90
20005;DHT22;69160;45.498;-73.582;2023-08-07T00:08:14;21.40;99.90
20005;DHT22;69160;45.498;-73.582;2023-08-07T00:10:40;21.60;99.90
20005;DHT22;69160;45.498;-73.582;2023-08-07T00:13:07;21.70;99.90
20005;DHT22;69160;45.498;-73.582;2023-08-07T00:15:33;21.70;98.80
20005;DHT22;69160;45.498;-73.582;2023-08-07T00:17:59;21.60;97.60
20005;DHT22;69160;45.498;-73.582;2023-08-07T00:20:26;21.50;97.30
20005;DHT22;69160;45.498;-73.582;2023-08-07T00:22:52;21.60;98.70
20005;DHT22;69160;45.498;-73.582;2023-08-07T00:25:19;21.60;99.60
20005;DHT22;69160;45.498;-73.582;2023-08-07T00:27:45;21.70;99.70
20005;DHT22;69160;45.498;-73.582;2023-08-07T00:30:11;21.70;99.90
20005;DHT22;69160;45.498;-73.582;2023-08-07T00:32:37;21.70;99.90
20005;DHT22;69160;45.498;-73.582;2023-08-07T00:35:05;21.70;99.50
20005;DHT22;69160;45.498;-73.582;2023-08-07T00:37:31;21.60;98.00
20005;DHT22;69160;45.498;-73.582;2023-08-07T00:39:57;21.50;97.20
20005;DHT22;69160;45.498;-73.582;2023-08-07T00:42:23;21.50;97.30
20005;DHT22;69160;45.498;-73.582;2023-08-07T00:44:49;21.60;98.60
20005;DHT22;69160;45.498;-73.582;2023-08-07T00:47:15;21.60;99.30
20005;DHT22;69160;45.498;-73.582;2023-08-07T00:49:42;21.60;99.90
20005;DHT22;69160;45.498;-73.582;2023-08-07T00:52:08;21.60;99.90
20005;DHT22;69160;45.498;-73.582;2023-08-07T00:54:34;21.70;99.90
20005;DHT22;69160;45.498;-73.582;2023-08-07T00:57:12;21.70;99.90
20005;DHT22;69160;45.498;-73.582;2023-08-07T00:59:41;21.60;98.40
20005;DHT22;69160;45.498;-73.582;2023-08-07T01:02:08;21.50;97.20
20005;DHT22;69160;45.498;-73.582;2023-08-07T01:04:35;21.40;96.60
20005;DHT22;69160;45.498;-73.582;2023-08-07T01:07:01;21.50;98.10
20005;DHT22;69160;45.498;-73.582;2023-08-07T01:09:27;21.60;99.40
20005;DHT22;69160;45.498;-73.582;2023-08-07T01:12:09;21.60;99.90
20005;DHT22;69160;45.498;-73.582;2023-08-07T01:14:55;21.60;99.90
20005;DHT22;69160;45.498;-73.582;2023-08-07T01:17:24;21.70;99.90
20005;DHT22;69160;45.498;-73.582;2023-08-07T01:19:52;21.70;99.90
20005;DHT22;69160;45.498;-73.582;2023-08-07T01:22:19;21.80;99.90
20005;DHT22;69160;45.498;-73.582;2023-08-07T01:24:48;21.80;99.90
20005;DHT22;69160;45.498;-73.582;2023-08-07T01:32:40;21.70;97.40
20005;DHT22;69160;45.498;-73.582;2023-08-07T01:35:08;21.70;98.50
20005;DHT22;69160;45.498;-73.582;2023-08-07T01:37:41;21.70;99.10
20005;DHT22;69160;45.498;-73.582;2023-08-07T01:40:08;21.70;99.70
20005;DHT22;69160;45.498;-73.582;2023-08-07T01:42:36;21.80;99.90
20005;DHT22;69160;45.498;-73.582;2023-08-07T01:45:03;21.90;99.90
20005;DHT22;69160;45.498;-73.582;2023-08-07T01:47:30;21.90;99.90
20005;DHT22;69160;45.498;-73.582;2023-08-07T01:49:56;21.90;98.60
20005;DHT22;69160;45.498;-73.582;2023-08-07T01:52:22;21.80;97.70
20005;DHT22;69160;45.498;-73.582;2023-08-07T01:54:49;21.60;97.00
20005;DHT22;69160;45.498;-73.582;2023-08-07T01:57:15;21.60;97.40
20005;DHT22;69160;45.498;-73.582;2023-08-07T01:59:41;21.60;98.30
20005;DHT22;69160;45.498;-73.582;2023-08-07T02:02:08;21.70;98.90
20005;DHT22;69160;45.498;-73.582;2023-08-07T02:04:34;21.80;99.70
20005;DHT22;69160;45.498;-73.582;2023-08-07T02:07:00;21.70;99.90
20005;DHT22;69160;45.498;-73.582;2023-08-07T02:09:26;21.70;99.90
20005;DHT22;69160;45.498;-73.582;2023-08-07T02:11:52;21.80;99.90
20005;DHT22;69160;45.498;-73.582;2023-08-07T02:14:18;21.90;99.90
20005;DHT22;69160;45.498;-73.582;2023-08-07T02:16:45;21.80;99.20
20005;DHT22;69160;45.498;-73.582;2023-08-07T02:19:11;21.70;98.20
20005;DHT22;69160;45.498;-73.582;2023-08-07T02:21:37;21.60;97.60
20005;DHT22;69160;45.498;-73.582;2023-08-07T02:24:03;21.60;97.40
20005;DHT22;69160;45.498;-73.582;2023-08-07T02:26:29;21.60;98.50
20005;DHT22;69160;45.498;-73.582;2023-08-07T02:28:55;21.60;99.50
20005;DHT22;69160;45.498;-73.582;2023-08-07T02:31:22;21.70;99.90
20005;DHT22;69160;45.498;-73.582;2023-08-07T02:33:48;21.70;99.90
20005;DHT22;69160;45.498;-73.582;2023-08-07T02:36:14;21.70;99.90
20005;DHT22;69160;45.498;-73.582;2023-08-07T02:38:40;21.80;99.90
20005;DHT22;69160;45.498;-73.582;2023-08-07T02:41:06;21.80;99.90
20005;DHT22;69160;45.498;-73.582;2023-08-07T02:43:32;21.80;99.80
20005;DHT22;69160;45.498;-73.582;2023-08-07T02:46:00;21.70;98.40
20005;DHT22;69160;45.498;-73.582;2023-08-07T02:48:26;21.60;97.70
20005;DHT22;69160;45.498;-73.582;2023-08-07T02:50:52;21.60;98.40
20005;DHT22;69160;45.498;-73.582;2023-08-07T02:53:19;21.60;99.50
20005;DHT22;69160;45.498;-73.582;2023-08-07T02:55:45;21.70;99.90
20005;DHT22;69160;45.498;-73.582;2023-08-07T02:58:11;21.70;99.90
20005;DHT22;69160;45.498;-73.582;2023-08-07T03:00:37;21.70;99.90
20005;DHT22;69160;45.498;-73.582;2023-08-07T03:03:03;21.70;99.90
20005;DHT22;69160;45.498;-73.582;2023-08-07T03:05:29;21.80;99.90
20005;DHT22;69160;45.498;-73.582;2023-08-07T03:07:55;21.90;99.90
20005;DHT22;69160;45.498;-73.582;2023-08-07T03:10:22;21.80;99.60
20005;DHT22;69160;45.498;-73.582;2023-08-07T03:12:48;21.70;98.50
20005;DHT22;69160;45.498;-73.582;2023-08-07T03:15:14;21.50;97.90
20005;DHT22;69160;45.498;-73.582;2023-08-07T03:17:40;21.50;99.00
20005;DHT22;69160;45.498;-73.582;2023-08-07T03:20:06;21.60;99.90
20005;DHT22;69160;45.498;-73.582;2023-08-07T03:22:33;21.60;99.90
20005;DHT22;69160;45.498;-73.582;2023-08-07T03:24:59;21.70;99.90
20005;DHT22;69160;45.498;-73.582;2023-08-07T03:27:25;21.70;99.90
20005;DHT22;69160;45.498;-73.582;2023-08-07T03:29:51;21.70;99.90
20005;DHT22;69160;45.498;-73.582;2023-08-07T03:32:18;21.80;99.90
20005;DHT22;69160;45.498;-73.582;2023-08-07T03:34:44;21.70;99.40
20005;DHT22;69160;45.498;-73.582;2023-08-07T03:37:10;21.60;98.50
20005;DHT22;69160;45.498;-73.582;2023-08-07T03:39:36;21.50;97.90
20005;DHT22;69160;45.498;-73.582;2023-08-07T03:42:02;21.50;99.00
20005;DHT22;69160;45.498;-73.582;2023-08-07T03:44:28;21.50;99.90
20005;DHT22;69160;45.498;-73.582;2023-08-07T03:46:55;21.60;99.90
20005;DHT22;69160;45.498;-73.582;2023-08-07T03:49:23;21.60;99.90
20005;DHT22;69160;45.498;-73.582;2023-08-07T03:51:49;21.70;99.90
20005;DHT22;69160;45.498;-73.582;2023-08-07T03:54:15;21.70;99.90
20005;DHT22;69160;45.498;-73.582;2023-08-07T03:56:41;21.70;99.90
20005;DHT22;69160;45.498;-73.582;2023-08-07T03:59:07;21.90;99.90
20005;DHT22;69160;45.498;-73.582;2023-08-07T04:01:34;21.80;99.90
20005;DHT22;69160;45.498;-73.582;2023-08-07T04:04:00;21.70;98.40
20005;DHT22;69160;45.498;-73.582;2023-08-07T04:06:26;21.60;97.90
20005;DHT22;69160;45.498;-73.582;2023-08-07T04:08:52;21.60;99.00
20005;DHT22;69160;45.498;-73.582;2023-08-07T04:11:19;21.60;99.80
20005;DHT22;69160;45.498;-73.582;2023-08-07T04:13:45;21.70;99.90
20005;DHT22;69160;45.498;-73.582;2023-08-07T04:16:11;21.70;99.90
20005;DHT22;69160;45.498;-73.582;2023-08-07T04:18:37;21.70;99.90
20005;DHT22;69160;45.498;-73.582;2023-08-07T04:21:03;21.70;99.90
20005;DHT22;69160;45.498;-73.582;2023-08-07T04:23:29;21.80;99.90
20005;DHT22;69160;45.498;-73.582;2023-08-07T04:25:57;21.90;99.90
20005;DHT22;69160;45.498;-73.582;2023-08-07T04:28:23;21.70;99.50
20005;DHT22;69160;45.498;-73.582;2023-08-07T04:30:50;21.60;98.50
20005;DHT22;69160;45.498;-73.582;2023-08-07T04:33:17;21.50;98.40
20005;DHT22;69160;45.498;-73.582;2023-08-07T04:35:43;21.50;99.70
20005;DHT22;69160;45.498;-73.582;2023-08-07T04:38:09;21.50;99.90
20005;DHT22;69160;45.498;-73.582;2023-08-07T04:40:35;21.60;99.90
20005;DHT22;69160;45.498;-73.582;2023-08-07T04:43:01;21.60;99.90
20005;DHT22;69160;45.498;-73.582;2023-08-07T04:45:28;21.70;99.90
20005;DHT22;69160;45.498;-73.582;2023-08-07T04:47:54;21.80;99.90
20005;DHT22;69160;45.498;-73.582;2023-08-07T04:50:20;21.80;99.90
20005;DHT22;69160;45.498;-73.582;2023-08-07T04:52:46;21.70;99.90
20005;DHT22;69160;45.498;-73.582;2023-08-07T04:55:12;21.60;98.50
20005;DHT22;69160;45.498;-73.582;2023-08-07T04:57:38;21.50;98.00
20005;DHT22;69160;45.498;-73.582;2023-08-07T05:00:05;21.60;99.30
20005;DHT22;69160;45.498;-73.582;2023-08-07T05:02:31;21.70;99.90
20005;DHT22;69160;45.498;-73.582;2023-08-07T05:04:58;21.60;99.90
20005;DHT22;69160;45.498;-73.582;2023-08-07T05:07:24;21.70;99.90
20005;DHT22;69160;45.498;-73.582;2023-08-07T05:09:50;21.70;99.90
20005;DHT22;69160;45.498;-73.582;2023-08-07T05:12:16;21.80;99.90
20005;DHT22;69160;45.498;-73.582;2023-08-07T05:14:42;21.80;99.90
20005;DHT22;69160;45.498;-73.582;2023-08-07T05:17:08;21.70;99.70
20005;DHT22;69160;45.498;-73.582;2023-08-07T05:19:35;21.70;98.50
20005;DHT22;69160;45.498;-73.582;2023-08-07T05:22:01;21.60;97.90
20005;DHT22;69160;45.498;-73.582;2023-08-07T05:24:27;21.50;99.00
20005;DHT22;69160;45.498;-73.582;2023-08-07T05:26:53;21.50;99.90
20005;DHT22;69160;45.498;-73.582;2023-08-07T05:29:19;21.60;99.90
20005;DHT22;69160;45.498;-73.582;2023-08-07T05:31:45;21.60;99.90
20005;DHT22;69160;45.498;-73.582;2023-08-07T05:34:11;21.70;99.90
20005;DHT22;69160;45.498;-73.582;2023-08-07T05:36:37;21.80;99.90
20005;DHT22;69160;45.498;-73.582;2023-08-07T05:39:05;21.90;99.90
20005;DHT22;69160;45.498;-73.582;2023-08-07T05:41:31;21.90;99.90
20005;DHT22;69160;45.498;-73.582;2023-08-07T05:43:57;21.70;98.90
20005;DHT22;69160;45.498;-73.582;2023-08-07T05:46:23;21.60;98.20
20005;DHT22;69160;45.498;-73.582;2023-08-07T05:48:49;21.60;98.40
20005;DHT22;69160;45.498;-73.582;2023-08-07T05:51:15;21.60;99.40
20005;DHT22;69160;45.498;-73.582;2023-08-07T05:53:41;21.60;99.90
20005;DHT22;69160;45.498;-73.582;2023-08-07T05:56:08;21.60;99.90
20005;DHT22;69160;45.498;-73.582;2023-08-07T05:58:34;21.70;99.90
20005;DHT22;69160;45.498;-73.582;2023-08-07T06:01:00;21.70;99.90
20005;DHT22;69160;45.498;-73.582;2023-08-07T06:03:26;21.80;99.90
20005;DHT22;69160;45.498;-73.582;2023-08-07T06:05:53;21.90;99.90
20005;DHT22;69160;45.498;-73.582;2023-08-07T06:08:19;21.90;99.90
20005;DHT22;69160;45.498;-73.582;2023-08-07T06:10:45;21.80;99.40
20005;DHT22;69160;45.498;-73.582;2023-08-07T06:13:12;21.60;98.40
20005;DHT22;69160;45.498;-73.582;2023-08-07T06:15:38;21.50;98.50
20005;DHT22;69160;45.498;-73.582;2023-08-07T06:18:04;21.50;99.60
20005;DHT22;69160;45.498;-73.582;2023-08-07T06:20:30;21.60;99.90
20005;DHT22;69160;45.498;-73.582;2023-08-07T06:22:56;21.60;99.90
20005;DHT22;69160;45.498;-73.582;2023-08-07T06:25:22;21.60;99.90
20005;DHT22;69160;45.498;-73.582;2023-08-07T06:27:50;21.70;99.90
20005;DHT22;69160;45.498;-73.582;2023-08-07T06:30:17;21.70;99.90
20005;DHT22;69160;45.498;-73.582;2023-08-07T06:32:43;21.80;99.90
20005;DHT22;69160;45.498;-73.582;2023-08-07T06:35:09;21.80;99.90
20005;DHT22;69160;45.498;-73.582;2023-08-07T06:37:35;21.80;99.90
20005;DHT22;69160;45.498;-73.582;2023-08-07T06:40:02;21.70;98.90
20005;DHT22;69160;45.498;-73.582;2023-08-07T06:42:28;21.50;98.20
20005;DHT22;69160;45.498;-73.582;2023-08-07T06:44:54;21.50;99.20
20005;DHT22;69160;45.498;-73.582;2023-08-07T06:47:20;21.50;99.90
20005;DHT22;69160;45.498;-73.582;2023-08-07T06:49:46;21.60;99.90
20005;DHT22;69160;45.498;-73.582;2023-08-07T06:52:12;21.60;99.90
20005;DHT22;69160;45.498;-73.582;2023-08-07T06:54:39;21.60;99.90
20005;DHT22;69160;45.498;-73.582;2023-08-07T06:57:05;21.70;99.90
20005;DHT22;69160;45.498;-73.582;2023-08-07T06:59:31;21.80;99.90
20005;DHT22;69160;45.498;-73.582;2023-08-07T07:01:57;21.90;99.90
20005;DHT22;69160;45.498;-73.582;2023-08-07T07:04:23;21.90;99.90
20005;DHT22;69160;45.498;-73.582;2023-08-07T07:06:49;21.70;99.00
20005;DHT22;69160;45.498;-73.582;2023-08-07T07:09:15;21.70;98.20
20005;DHT22;69160;45.498;-73.582;2023-08-07T07:11:43;21.60;99.10
20005;DHT22;69160;45.498;-73.582;2023-08-07T07:14:09;21.60;99.90
20005;DHT22;69160;45.498;-73.582;2023-08-07T07:16:36;21.60;99.90
20005;DHT22;69160;45.498;-73.582;2023-08-07T07:19:04;21.60;99.90
20005;DHT22;69160;45.498;-73.582;2023-08-07T07:21:30;21.70;99.90
20005;DHT22;69160;45.498;-73.582;2023-08-07T07:23:56;21.80;99.90
20005;DHT22;69160;45.498;-73.582;2023-08-07T07:26:22;21.80;99.90
20005;DHT22;69160;45.498;-73.582;2023-08-07T07:28:48;21.90;99.90
20005;DHT22;69160;45.498;-73.582;2023-08-07T07:31:16;21.80;99.20
20005;DHT22;69160;45.498;-73.582;2023-08-07T07:33:43;21.70;98.10
20005;DHT22;69160;45.498;-73.582;2023-08-07T07:36:17;21.50;98.10
20005;DHT22;69160;45.498;-73.582;2023-08-07T07:38:48;21.50;99.30
20005;DHT22;69160;45.498;-73.582;2023-08-07T07:41:15;21.60;99.90
20005;DHT22;69160;45.498;-73.582;2023-08-07T07:43:41;21.70;99.90
20005;DHT22;69160;45.498;-73.582;2023-08-07T07:46:08;21.60;99.90
20005;DHT22;69160;45.498;-73.582;2023-08-07T07:48:34;21.80;99.90
20005;DHT22;69160;45.498;-73.582;2023-08-07T07:51:01;21.80;99.90
20005;DHT22;69160;45.498;-73.582;2023-08-07T07:53:27;21.90;99.90
20005;DHT22;69160;45.498;-73.582;2023-08-07T07:55:54;21.90;99.90
20005;DHT22;69160;45.498;-73.582;2023-08-07T07:58:20;21.80;99.50
20005;DHT22;69160;45.498;-73.582;2023-08-07T08:00:47;21.70;98.40
20005;DHT22;69160;45.498;-73.582;2023-08-07T08:03:13;21.60;97.90
20005;DHT22;69160;45.498;-73.582;2023-08-07T08:05:39;21.50;99.00
20005;DHT22;69160;45.498;-73.582;2023-08-07T08:08:06;21.50;99.90
20005;DHT22;69160;45.498;-73.582;2023-08-07T08:10:36;21.60;99.90
20005;DHT22;69160;45.498;-73.582;2023-08-07T08:13:02;21.70;99.90
20005;DHT22;69160;45.498;-73.582;2023-08-07T08:15:31;21.70;99.90
20005;DHT22;69160;45.498;-73.582;2023-08-07T08:17:57;21.80;99.90
20005;DHT22;69160;45.498;-73.582;2023-08-07T08:20:23;21.90;99.90
20005;DHT22;69160;45.498;-73.582;2023-08-07T08:22:49;21.90;99.90
20005;DHT22;69160;45.498;-73.582;2023-08-07T08:25:15;22.00;99.90
20005;DHT22;69160;45.498;-73.582;2023-08-07T08:27:43;21.80;99.20
20005;DHT22;69160;45.498;-73.582;2023-08-07T08:30:10;21.70;97.90
20005;DHT22;69160;45.498;-73.582;2023-08-07T08:32:36;21.60;98.40
20005;DHT22;69160;45.498;-73.582;2023-08-07T08:35:02;21.60;99.60
20005;DHT22;69160;45.498;-73.582;2023-08-07T08:37:28;21.60;99.90
20005;DHT22;69160;45.498;-73.582;2023-08-07T08:39:55;21.60;99.90
20005;DHT22;69160;45.498;-73.582;2023-08-07T08:42:21;21.70;99.90
20005;DHT22;69160;45.498;-73.582;2023-08-07T08:44:51;21.70;99.90
20005;DHT22;69160;45.498;-73.582;2023-08-07T08:47:18;21.80;99.90
20005;DHT22;69160;45.498;-73.582;2023-08-07T08:49:50;21.90;99.90
20005;DHT22;69160;45.498;-73.582;2023-08-07T08:52:17;21.90;99.90
20005;DHT22;69160;45.498;-73.582;2023-08-07T08:54:44;21.90;99.90
20005;DHT22;69160;45.498;-73.582;2023-08-07T08:57:11;21.70;98.90
20005;DHT22;69160;45.498;-73.582;2023-08-07T08:59:39;21.60;98.00
20005;DHT22;69160;45.498;-73.582;2023-08-07T09:02:06;21.60;99.50
20005;DHT22;69160;45.498;-73.582;2023-08-07T09:04:33;21.60;99.90
20005;DHT22;69160;45.498;-73.582;2023-08-07T09:07:00;21.70;99.90
20005;DHT22;69160;45.498;-73.582;2023-08-07T09:09:27;21.70;99.90
20005;DHT22;69160;45.498;-73.582;2023-08-07T09:11:55;21.70;99.90
20005;DHT22;69160;45.498;-73.582;2023-08-07T09:14:26;21.80;99.90
20005;DHT22;69160;45.498;-73.582;2023-08-07T09:16:52;21.90;99.90
20005;DHT22;69160;45.498;-73.582;2023-08-07T09:19:19;21.90;99.90
20005;DHT22;69160;45.498;-73.582;2023-08-07T09:21:46;21.90;99.90
20005;DHT22;69160;45.498;-73.582;2023-08-07T09:24:12;21.80;98.90
20005;DHT22;69160;45.498;-73.582;2023-08-07T09:26:42;21.70;98.10
20005;DHT22;69160;45.498;-73.582;2023-08-07T09:29:11;21.60;99.60
20005;DHT22;69160;45.498;-73.582;2023-08-07T09:31:38;21.60;99.90
20005;DHT22;69160;45.498;-73.582;2023-08-07T09:34:05;21.60;99.90
20005;DHT22;69160;45.498;-73.582;2023-08-07T09:36:31;21.60;99.90
20005;DHT22;69160;45.498;-73.582;2023-08-07T09:39:01;21.70;99.90
20005;DHT22;69160;45.498;-73.582;2023-08-07T09:41:29;21.80;99.90
20005;DHT22;69160;45.498;-73.582;2023-08-07T09:43:56;21.90;99.90
20005;DHT22;69160;45.498;-73.582;2023-08-07T09:46:26;21.90;99.90
20005;DHT22;69160;45.498;-73.582;2023-08-07T09:48:57;21.90;99.90
20005;DHT22;69160;45.498;-73.582;2023-08-07T09:51:25;21.80;99.20
20005;DHT22;69160;45.498;-73.582;2023-08-07T09:53:51;21.60;98.30
20005;DHT22;69160;45.498;-73.582;2023-08-07T09:56:17;21.60;99.30
20005;DHT22;69160;45.498;-73.582;2023-08-07T09:58:47;21.60;99.90
20005;DHT22;69160;45.498;-73.582;2023-08-07T10:01:16;21.70;99.90
20005;DHT22;69160;45.498;-73.582;2023-08-07T10:03:43;21.70;99.90
20005;DHT22;69160;45.498;-73.582;2023-08-07T10:06:09;21.80;99.90
20005;DHT22;69160;45.498;-73.582;2023-08-07T10:08:36;21.80;99.90
20005;DHT22;69160;45.498;-73.582;2023-08-07T10:11:03;21.90;99.90
20005;DHT22;69160;45.498;-73.582;2023-08-07T10:13:30;21.90;99.90
20005;DHT22;69160;45.498;-73.582;2023-08-07T10:15:58;21.90;99.90
20005;DHT22;69160;45.498;-73.582;2023-08-07T10:18:24;21.90;99.90
20005;DHT22;69160;45.498;-73.582;2023-08-07T10:20:50;21.70;99.00
20005;DHT22;69160;45.498;-73.582;2023-08-07T10:23:17;21.60;98.30
20005;DHT22;69160;45.498;-73.582;2023-08-07T10:25:45;21.60;99.50
20005;DHT22;69160;45.498;-73.582;2023-08-07T10:28:17;21.60;99.90
20005;DHT22;69160;45.498;-73.582;2023-08-07T10:30:44;21.70;99.90
20005;DHT22;69160;45.498;-73.582;2023-08-07T10:33:12;21.80;99.90
20005;DHT22;69160;45.498;-73.582;2023-08-07T10:35:47;21.70;99.90
20005;DHT22;69160;45.498;-73.582;2023-08-07T10:38:14;21.80;99.90
20005;DHT22;69160;45.498;-73.582;2023-08-07T10:43:30;21.90;99.90
20005;DHT22;69160;45.498;-73.582;2023-08-07T10:46:14;22.00;99.90
20005;DHT22;69160;45.498;-73.582;2023-08-07T10:48:45;22.00;99.90
20005;DHT22;69160;45.498;-73.582;2023-08-07T10:51:18;21.80;99.30
20005;DHT22;69160;45.498;-73.582;2023-08-07T10:53:49;21.70;98.30
20005;DHT22;69160;45.498;-73.582;2023-08-07T10:56:31;21.60;99.50
20005;DHT22;69160;45.498;-73.582;2023-08-07T10:58:57;21.60;99.90
20005;DHT22;69160;45.498;-73.582;2023-08-07T11:03:58;21.70;99.90
20005;DHT22;69160;45.498;-73.582;2023-08-07T11:06:35;21.70;99.90
20005;DHT22;69160;45.498;-73.582;2023-08-07T11:09:03;21.80;99.90
20005;DHT22;69160;45.498;-73.582;2023-08-07T11:11:41;21.90;99.90
20005;DHT22;69160;45.498;-73.582;2023-08-07T11:14:15;21.90;99.90
20005;DHT22;69160;45.498;-73.582;2023-08-07T11:16:42;21.90;99.90
20005;DHT22;69160;45.498;-73.582;2023-08-07T11:19:08;21.80;99.50
20005;DHT22;69160;45.498;-73.582;2023-08-07T11:21:37;21.70;98.30
20005;DHT22;69160;45.498;-73.582;2023-08-07T11:24:03;21.60;99.70
20005;DHT22;69160;45.498;-73.582;2023-08-07T11:26:30;21.60;99.90
20005;DHT22;69160;45.498;-73.582;2023-08-07T11:28:56;21.60;99.90
20005;DHT22;69160;45.498;-73.582;2023-08-07T11:31:24;21.70;99.90
20005;DHT22;69160;45.498;-73.582;2023-08-07T11:33:51;21.70;99.90
20005;DHT22;69160;45.498;-73.582;2023-08-07T11:36:18;21.70;99.90
20005;DHT22;69160;45.498;-73.582;2023-08-07T11:38:44;21.80;99.90
20005;DHT22;69160;45.498;-73.582;2023-08-07T11:41:16;21.70;99.30
20005;DHT22;69160;45.498;-73.582;2023-08-07T11:43:42;21.70;98.40
20005;DHT22;69160;45.498;-73.582;2023-08-07T11:46:14;21.60;99.80
20005;DHT22;69160;45.498;-73.582;2023-08-07T11:48:42;21.60;99.90
20005;DHT22;69160;45.498;-73.582;2023-08-07T11:51:08;21.70;99.90
20005;DHT22;69160;45.498;-73.582;2023-08-07T11:53:36;21.70;99.90
20005;DHT22;69160;45.498;-73.582;2023-08-07T11:56:05;21.80;99.90
20005;DHT22;69160;45.498;-73.582;2023-08-07T11:58:46;21.90;99.90
20005;DHT22;69160;45.498;-73.582;2023-08-07T12:01:20;22.00;99.90
20005;DHT22;69160;45.498;-73.582;2023-08-07T12:06:32;22.00;99.90
20005;DHT22;69160;45.498;-73.582;2023-08-07T12:08:59;22.10;99.90
20005;DHT22;69160;45.498;-73.582;2023-08-07T12:11:26;22.30;99.90
20005;DHT22;69160;45.498;-73.582;2023-08-07T12:13:53;22.20;99.90
20005;DHT22;69160;45.498;-73.582;2023-08-07T12:16:19;22.30;99.90
20005;DHT22;69160;45.498;-73.582;2023-08-07T12:18:50;22.40;99.90
20005;DHT22;69160;45.498;-73.582;2023-08-07T12:21:19;22.40;99.90
20005;DHT22;69160;45.498;-73.582;2023-08-07T12:23:46;22.50;99.90
20005;DHT22;69160;45.498;-73.582;2023-08-07T12:26:14;22.50;99.90
20005;DHT22;69160;45.498;-73.582;2023-08-07T12:28:40;22.50;99.90
20005;DHT22;69160;45.498;-73.582;2023-08-07T12:31:06;22.40;99.90
20005;DHT22;69160;45.498;-73.582;2023-08-07T12:33:33;22.20;99.30
20005;DHT22;69160;45.498;-73.582;2023-08-07T12:36:00;22.10;99.40
20005;DHT22;69160;45.498;-73.582;2023-08-07T12:38:27;22.10;99.90
20005;DHT22;69160;45.498;-73.582;2023-08-07T12:40:54;22.20;99.90
20005;DHT22;69160;45.498;-73.582;2023-08-07T12:43:20;22.20;99.90
20005;DHT22;69160;45.498;-73.582;2023-08-07T12:45:46;22.20;99.90
20005;DHT22;69160;45.498;-73.582;2023-08-07T12:48:13;22.30;99.90
20005;DHT22;69160;45.498;-73.582;2023-08-07T12:50:40;22.30;99.90
20005;DHT22;69160;45.498;-73.582;2023-08-07T12:53:07;22.10;99.10
20005;DHT22;69160;45.498;-73.582;2023-08-07T12:55:34;22.10;99.90
20005;DHT22;69160;45.498;-73.582;2023-08-07T12:58:00;22.20;99.90
20005;DHT22;69160;45.498;-73.582;2023-08-07T13:00:26;22.20;99.90
20005;DHT22;69160;45.498;-73.582;2023-08-07T13:02:53;22.20;99.90
20005;DHT22;69160;45.498;-73.582;2023-08-07T13:05:21;22.20;99.90
20005;DHT22;69160;45.498;-73.582;2023-08-07T13:07:51;22.30;99.90
20005;DHT22;69160;45.498;-73.582;2023-08-07T13:10:20;22.30;99.90
20005;DHT22;69160;45.498;-73.582;2023-08-07T13:12:48;22.40;99.90
20005;DHT22;69160;45.498;-73.582;2023-08-07T13:15:16;22.40;99.90
20005;DHT22;69160;45.498;-73.582;2023-08-07T13:17:43;22.30;99.90
20005;DHT22;69160;45.498;-73.582;2023-08-07T13:20:14;22.30;99.30
20005;DHT22;69160;45.498;-73.582;2023-08-07T13:22:41;22.20;99.90
20005;DHT22;69160;45.498;-73.582;2023-08-07T13:25:09;22.20;99.90
20005;DHT22;69160;45.498;-73.582;2023-08-07T13:27:36;22.20;99.90
20005;DHT22;69160;45.498;-73.582;2023-08-07T13:30:03;22.20;99.90
20005;DHT22;69160;45.498;-73.582;2023-08-07T13:32:30;22.20;99.90
20005;DHT22;69160;45.498;-73.582;2023-08-07T13:34:57;22.20;99.90
20005;DHT22;69160;45.498;-73.582;2023-08-07T13:37:24;22.30;99.90
20005;DHT22;69160;45.498;-73.582;2023-08-07T13:39:50;22.30;99.90
20005;DHT22;69160;45.498;-73.582;2023-08-07T13:42:18;22.10;99.40
20005;DHT22;69160;45.498;-73.582;2023-08-07T13:44:45;22.10;99.70
20005;DHT22;69160;45.498;-73.582;2023-08-07T13:47:11;22.10;99.90
20005;DHT22;69160;45.498;-73.582;2023-08-07T13:49:38;22.10;99.90
20005;DHT22;69160;45.498;-73.582;2023-08-07T13:52:05;22.20;99.90
20005;DHT22;69160;45.498;-73.582;2023-08-07T13:54:31;22.20;99.90
20005;DHT22;69160;45.498;-73.582;2023-08-07T13:56:57;22.30;99.90
20005;DHT22;69160;45.498;-73.582;2023-08-07T13:59:23;22.40;99.90
20005;DHT22;69160;45.498;-73.582;2023-08-07T14:01:49;22.40;99.90
20005;DHT22;69160;45.498;-73.582;2023-08-07T14:04:15;22.40;99.90
20005;DHT22;69160;45.498;-73.582;2023-08-07T14:06:42;22.20;99.90
20005;DHT22;69160;45.498;-73.582;2023-08-07T14:09:09;22.00;99.60
20005;DHT22;69160;45.498;-73.582;2023-08-07T14:11:35;22.10;99.90
20005;DHT22;69160;45.498;-73.582;2023-08-07T14:14:01;22.10;99.90
20005;DHT22;69160;45.498;-73.582;2023-08-07T14:16:28;22.10;99.90
20005;DHT22;69160;45.498;-73.582;2023-08-07T14:18:54;22.10;99.90
20005;DHT22;69160;45.498;-73.582;2023-08-07T14:21:20;22.20;99.90
20005;DHT22;69160;45.498;-73.582;2023-08-07T14:23:47;22.30;99.90
20005;DHT22;69160;45.498;-73.582;2023-08-07T14:26:14;22.30;99.90
20005;DHT22;69160;45.498;-73.582;2023-08-07T14:28:40;22.40;99.90
20005;DHT22;69160;45.498;-73.582;2023-08-07T14:31:08;22.40;99.90
20005;DHT22;69160;45.498;-73.582;2023-08-07T14:33:34;22.40;99.90
20005;DHT22;69160;45.498;-73.582;2023-08-07T14:36:01;22.30;99.90
20005;DHT22;69160;45.498;-73.582;2023-08-07T14:38:28;22.10;98.80
20005;DHT22;69160;45.498;-73.582;2023-08-07T14:40:54;22.10;99.60
20005;DHT22;69160;45.498;-73.582;2023-08-07T14:43:21;22.10;99.90
20005;DHT22;69160;45.498;-73.582;2023-08-07T14:45:48;22.20;99.90
20005;DHT22;69160;45.498;-73.582;2023-08-07T14:48:15;22.10;99.90
20005;DHT22;69160;45.498;-73.582;2023-08-07T14:50:42;22.20;99.90
20005;DHT22;69160;45.498;-73.582;2023-08-07T14:53:08;22.20;99.90
20005;DHT22;69160;45.498;-73.582;2023-08-07T14:55:34;22.20;99.90
20005;DHT22;69160;45.498;-73.582;2023-08-07T14:58:00;22.30;99.90
20005;DHT22;69160;45.498;-73.582;2023-08-07T15:00:26;22.20;99.90
20005;DHT22;69160;45.498;-73.582;2023-08-07T15:02:52;22.00;99.30
20005;DHT22;69160;45.498;-73.582;2023-08-07T15:05:19;22.00;99.50
20005;DHT22;69160;45.498;-73.582;2023-08-07T15:07:45;22.00;99.90
20005;DHT22;69160;45.498;-73.582;2023-08-07T15:10:11;22.10;99.90
20005;DHT22;69160;45.498;-73.582;2023-08-07T15:12:37;22.10;99.90
20005;DHT22;69160;45.498;-73.582;2023-08-07T15:15:03;22.10;99.90